createdAt,value
2022-11-05T00:01:28.331Z,99838.81
2022-11-05T00:04:49.058Z,99827.78
2022-11-05T00:08:11.825Z,99836.94
2022-11-05T00:11:18.109Z,99840.63
2022-11-05T00:14:39.687Z,99843.44
2022-11-05T00:17:42.246Z,99841.75
2022-11-05T00:20:44.971Z,99830.06
2022-11-05T00:24:05.843Z,99831.06
2022-11-05T00:27:10.694Z,99824.88
2022-11-05T00:30:18.063Z,99813.97
2022-11-05T00:33:23.153Z,99798.63
2022-11-05T00:36:25.488Z,99816.03
2022-11-05T00:39:27.872Z,99809.97
2022-11-05T00:42:49.103Z,99811.25
2022-11-05T00:45:51.484Z,99795.84
2022-11-05T00:49:12.252Z,99795.00
2022-11-05T00:52:33.063Z,99782.94
2022-11-05T00:55:35.398Z,99800.09
2022-11-05T00:58:37.848Z,99772.56
2022-11-05T01:01:40.714Z,99778.66
2022-11-05T01:04:43.226Z,99790.88
2022-11-05T01:07:45.673Z,99801.47
2022-11-05T01:10:51.454Z,99802.75
2022-11-05T01:13:53.754Z,99796.69
2022-11-05T01:16:56.170Z,99787.19
2022-11-05T01:20:01.387Z,99791.03
2022-11-05T01:23:05.480Z,99799.88
2022-11-05T01:26:11.325Z,99787.38
2022-11-05T01:29:13.786Z,99790.47
2022-11-05T01:32:16.779Z,99783.00
2022-11-05T01:35:19.154Z,99779.56
2022-11-05T01:38:21.978Z,99771.28
2022-11-05T01:41:24.324Z,99766.13
2022-11-05T01:44:54.334Z,99783.28
2022-11-05T01:48:02.569Z,99779.53
2022-11-05T01:51:08.469Z,99776.88
2022-11-05T01:54:14.306Z,99775.84
2022-11-05T01:57:16.847Z,99771.13
2022-11-05T02:00:20.854Z,99760.78
2022-11-05T02:03:23.989Z,99782.28
2022-11-05T02:06:27.565Z,99763.53
2022-11-05T02:09:34.907Z,99770.03
2022-11-05T02:12:39.890Z,99769.63
2022-11-05T02:16:27.170Z,99781.34
2022-11-05T02:20:00.400Z,99771.50
2022-11-05T02:23:25.912Z,99779.88
2022-11-05T02:27:02.310Z,99772.44
2022-11-05T02:30:19.889Z,99775.25
2022-11-05T02:33:35.808Z,99772.09
2022-11-05T02:36:41.397Z,99775.16
2022-11-05T02:40:05.582Z,99782.03
2022-11-05T02:43:43.627Z,99784.41
2022-11-05T02:46:52.968Z,99779.28
2022-11-05T02:50:15.082Z,99778.59
2022-11-05T02:53:35.305Z,99737.66
2022-11-05T02:56:40.550Z,99770.72
2022-11-05T02:59:43.085Z,99770.44
2022-11-05T03:02:45.728Z,99772.50
2022-11-05T03:06:19.089Z,99782.53
2022-11-05T03:09:45.619Z,99779.88
2022-11-05T03:12:48.088Z,99771.91
2022-11-05T03:15:56.958Z,99779.28
2022-11-05T03:19:08.537Z,99780.72
2022-11-05T03:22:24.134Z,99792.88
2022-11-05T03:25:28.319Z,99783.78
2022-11-05T03:28:33.134Z,99782.34
2022-11-05T03:31:37.307Z,99782.34
2022-11-05T03:34:47.221Z,99788.09
2022-11-05T03:37:51.256Z,99772.25
2022-11-05T03:40:55.450Z,99769.84
2022-11-05T03:43:58.851Z,99768.28
2022-11-05T03:47:05.493Z,99757.41
2022-11-05T03:50:14.180Z,99762.81
2022-11-05T03:53:26.274Z,99756.84
2022-11-05T03:56:30.779Z,99757.16
2022-11-05T03:59:39.951Z,99769.16
2022-11-05T04:02:42.590Z,99778.41
2022-11-05T04:06:05.059Z,99771.72
2022-11-05T04:09:26.031Z,99789.97
2022-11-05T04:12:46.748Z,99809.56
2022-11-05T04:16:07.494Z,99791.00
2022-11-05T04:19:09.854Z,99809.66
2022-11-05T04:22:30.982Z,99818.06
2022-11-05T04:25:33.804Z,99858.34
2022-11-05T04:28:54.543Z,99858.41
2022-11-05T04:31:59.803Z,99858.97
2022-11-05T04:35:02.122Z,99869.28
2022-11-05T04:38:06.021Z,99866.06
2022-11-05T04:41:17.692Z,99851.63
2022-11-05T04:44:20.038Z,99847.72
2022-11-05T04:47:22.372Z,99845.75
2022-11-05T04:50:26.663Z,99840.44
2022-11-05T04:53:29.257Z,99846.84
2022-11-05T04:56:31.631Z,99846.75
2022-11-05T04:59:33.974Z,99845.75
2022-11-05T05:02:36.527Z,99859.38
2022-11-05T05:05:38.883Z,99850.88
2022-11-05T05:08:41.524Z,99862.66
2022-11-05T05:11:43.929Z,99854.47
2022-11-05T05:14:48.013Z,99861.34
2022-11-05T05:17:53.553Z,99868.78
2022-11-05T05:21:18.404Z,99870.41
2022-11-05T05:24:21.408Z,99873.75
2022-11-05T05:27:24.430Z,99867.81
2022-11-05T05:30:29.364Z,99850.06
2022-11-05T05:33:31.661Z,99849.53
2022-11-05T05:36:34.055Z,99879.50
2022-11-05T05:39:36.400Z,99868.69
2022-11-05T05:42:42.929Z,99873.19
2022-11-05T05:45:45.827Z,99862.81
2022-11-05T05:48:50.028Z,99850.13
2022-11-05T05:51:52.422Z,99864.47
2022-11-05T05:54:54.830Z,99883.66
2022-11-05T05:57:57.139Z,99882.66
2022-11-05T06:01:17.418Z,99884.06
2022-11-05T06:04:21.469Z,99892.72
2022-11-05T06:07:23.843Z,99883.34
2022-11-05T06:10:26.305Z,99900.16
2022-11-05T06:13:29.265Z,99898.88
2022-11-05T06:16:35.881Z,99897.78
2022-11-05T06:19:38.385Z,99900.84
2022-11-05T06:22:40.870Z,99909.88
2022-11-05T06:25:43.243Z,99912.53
2022-11-05T06:28:46.502Z,99925.13
2022-11-05T06:31:48.979Z,99924.69
2022-11-05T06:34:51.375Z,99916.63
2022-11-05T06:37:53.758Z,99912.22
2022-11-05T06:40:58.709Z,99920.28
2022-11-05T06:44:01.177Z,99902.56
2022-11-05T06:47:03.596Z,99921.97
2022-11-05T06:50:06.485Z,99923.28
2022-11-05T06:53:09.302Z,99918.66
2022-11-05T06:56:12.133Z,99922.84
2022-11-05T06:59:14.804Z,99932.66
2022-11-05T07:02:18.294Z,99919.09
2022-11-05T07:05:20.684Z,99915.91
2022-11-05T07:08:24.053Z,99931.09
2022-11-05T07:11:26.434Z,99930.94
2022-11-05T07:14:30.125Z,99917.25
2022-11-05T07:17:32.564Z,99919.81
2022-11-05T07:20:35.449Z,99918.16
2022-11-05T07:23:37.913Z,99914.19
2022-11-05T07:26:40.256Z,99927.00
2022-11-05T07:29:42.846Z,99925.78
2022-11-05T07:32:45.351Z,99929.91
2022-11-05T07:35:47.791Z,99907.66
2022-11-05T07:38:50.170Z,99925.69
2022-11-05T07:41:57.705Z,99931.09
2022-11-05T07:45:07.877Z,99915.63
2022-11-05T07:48:10.238Z,99920.56
2022-11-05T07:51:12.550Z,99925.75
2022-11-05T07:54:14.965Z,99915.56
2022-11-05T07:57:17.359Z,99924.53
2022-11-05T08:00:21.894Z,99929.34
2022-11-05T08:03:24.603Z,99929.94
2022-11-05T08:06:27.069Z,99930.91
2022-11-05T08:09:29.520Z,99936.81
2022-11-05T08:12:32.438Z,99937.09
2022-11-05T08:15:35.469Z,99933.97
2022-11-05T08:18:37.903Z,99920.72
2022-11-05T08:21:40.348Z,99932.78
2022-11-05T08:24:42.774Z,99925.28
2022-11-05T08:27:45.806Z,99934.91
2022-11-05T08:30:50.004Z,99932.31
2022-11-05T08:33:57.119Z,99946.97
2022-11-05T08:37:02.329Z,99937.28
2022-11-05T08:40:05.319Z,99948.38
2022-11-05T08:43:08.418Z,99943.53
2022-11-05T08:46:11.083Z,99953.16
2022-11-05T08:49:13.442Z,99954.91
2022-11-05T08:52:15.950Z,99936.03
2022-11-05T08:55:19.027Z,99952.66
2022-11-05T08:58:21.413Z,99944.97
2022-11-05T09:01:26.797Z,99954.13
2022-11-05T09:04:30.500Z,99950.47
2022-11-05T09:07:32.961Z,99964.06
2022-11-05T09:10:35.868Z,99967.00
2022-11-05T09:13:38.400Z,99961.19
2022-11-05T09:16:42.522Z,99950.56
2022-11-05T09:19:45.178Z,99960.22
2022-11-05T09:22:47.648Z,99957.06
2022-11-05T09:25:49.990Z,99954.13
2022-11-05T09:28:52.353Z,99968.00
2022-11-05T09:31:54.742Z,99956.56
2022-11-05T09:34:57.098Z,99972.72
2022-11-05T09:38:01.160Z,99966.41
2022-11-05T09:41:24.216Z,99969.38
2022-11-05T09:44:47.655Z,99968.78
2022-11-05T09:47:54.725Z,99964.66
2022-11-05T09:50:58.289Z,99966.53
2022-11-05T09:54:00.775Z,99977.69
2022-11-05T09:57:04.013Z,99967.22
2022-11-05T10:00:08.603Z,99967.19
2022-11-05T10:03:14.541Z,99966.22
2022-11-05T10:06:22.122Z,99974.69
2022-11-05T10:09:30.192Z,99978.03
2022-11-05T10:12:40.371Z,99981.28
2022-11-05T10:16:18.119Z,99979.66
2022-11-05T10:19:24.553Z,99962.66
2022-11-05T10:22:27.080Z,99976.31
2022-11-05T10:25:32.023Z,99981.38
2022-11-05T10:28:34.860Z,99971.59
2022-11-05T10:31:37.822Z,99966.63
2022-11-05T10:34:40.308Z,99975.84
2022-11-05T10:37:42.670Z,99986.66
2022-11-05T10:40:59.897Z,99976.19
2022-11-05T10:44:23.473Z,99995.59
2022-11-05T10:47:39.091Z,99989.72
2022-11-05T10:50:44.176Z,99992.56
2022-11-05T10:53:55.941Z,99984.03
2022-11-05T10:57:01.170Z,99996.09
2022-11-05T11:00:15.941Z,100008.69
2022-11-05T11:03:40.088Z,100012.81
2022-11-05T11:06:51.358Z,100008.50
2022-11-05T11:09:54.012Z,100004.56
2022-11-05T11:12:57.122Z,99986.22
2022-11-05T11:16:19.909Z,100002.41
2022-11-05T11:19:33.562Z,100009.91
2022-11-05T11:22:35.885Z,100017.28
2022-11-05T11:25:52.077Z,100009.03
2022-11-05T11:29:23.515Z,100028.28
2022-11-05T11:32:32.477Z,100026.53
2022-11-05T11:35:37.862Z,100038.81
2022-11-05T11:38:40.797Z,100039.38
2022-11-05T11:41:44.234Z,100029.69
2022-11-05T11:44:47.748Z,100031.75
2022-11-05T11:47:50.966Z,100025.03
2022-11-05T11:50:53.855Z,100025.25
2022-11-05T11:53:58.362Z,100034.16
2022-11-05T11:57:00.848Z,100034.16
2022-11-05T12:00:11.256Z,100015.81
2022-11-05T12:03:31.739Z,100028.84
2022-11-05T12:07:05.685Z,100038.31
2022-11-05T12:10:29.866Z,100038.91
2022-11-05T12:13:55.390Z,100046.38
2022-11-05T12:17:23.935Z,100046.28
2022-11-05T12:20:34.154Z,100031.06
2022-11-05T12:23:42.393Z,100054.25
2022-11-05T12:27:11.050Z,100050.34
2022-11-05T12:30:19.201Z,100051.94
2022-11-05T12:33:33.806Z,100054.09
2022-11-05T12:37:20.321Z,100049.53
2022-11-05T12:40:50.567Z,100048.78
2022-11-05T12:43:56.035Z,100048.25
2022-11-05T12:47:14.663Z,100038.00
2022-11-05T12:50:22.934Z,100046.94
2022-11-05T12:53:34.366Z,100055.41
2022-11-05T12:56:43.654Z,100044.78
2022-11-05T13:00:06.741Z,100037.31
2022-11-05T13:03:23.320Z,100045.66
2022-11-05T13:06:30.996Z,100053.44
2022-11-05T13:10:05.709Z,100078.38
2022-11-05T13:13:38.219Z,100074.78
2022-11-05T13:16:44.840Z,100083.06
2022-11-05T13:19:52.608Z,100080.09
2022-11-05T13:23:14.117Z,100069.19
2022-11-05T13:26:27.550Z,100087.41
2022-11-05T13:29:37.748Z,100081.47
2022-11-05T13:32:45.049Z,100087.41
2022-11-05T13:36:20.625Z,100063.72
2022-11-05T13:39:25.087Z,100094.75
2022-11-05T13:42:58.473Z,100070.19
2022-11-05T13:46:25.207Z,100097.22
2022-11-05T13:49:33.302Z,100096.56
2022-11-05T13:52:50.872Z,100101.00
2022-11-05T13:56:16.349Z,100088.66
2022-11-05T13:59:48.906Z,100083.56
2022-11-05T14:02:55.973Z,100086.84
2022-11-05T14:06:10.030Z,100093.97
2022-11-05T14:09:18.883Z,100108.97
2022-11-05T14:12:36.793Z,100094.06
2022-11-05T14:15:39.197Z,100085.44
2022-11-05T14:18:44.311Z,100114.38
2022-11-05T14:21:54.845Z,100114.56
2022-11-05T14:24:57.943Z,100101.88
2022-11-05T14:28:00.529Z,100104.31
2022-11-05T14:31:05.398Z,100110.25
2022-11-05T14:34:10.845Z,100118.69
2022-11-05T14:37:13.341Z,100117.13
2022-11-05T14:40:21.920Z,100118.78
2022-11-05T14:43:26.022Z,100126.97
2022-11-05T14:46:42.194Z,100112.50
2022-11-05T14:50:09.200Z,100125.97
2022-11-05T14:53:25.415Z,100125.41
2022-11-05T14:56:27.910Z,100116.16
2022-11-05T14:59:32.758Z,100131.88
2022-11-05T15:02:38.532Z,100126.00
2022-11-05T15:05:53.247Z,100127.56
2022-11-05T15:08:56.400Z,100145.03
2022-11-05T15:12:46.638Z,100144.38
2022-11-05T15:15:50.758Z,100134.16
2022-11-05T15:18:54.150Z,100130.09
2022-11-05T15:21:58.699Z,100146.59
2022-11-05T15:25:01.878Z,100150.34
2022-11-05T15:28:27.265Z,100149.72
2022-11-05T15:31:32.552Z,100153.91
2022-11-05T15:34:35.712Z,100157.25
2022-11-05T15:37:52.358Z,100164.88
2022-11-05T15:41:03.001Z,100156.72
2022-11-05T15:44:05.542Z,100176.19
2022-11-05T15:47:16.891Z,100174.72
2022-11-05T15:50:19.406Z,100180.63
2022-11-05T15:53:51.552Z,100179.88
2022-11-05T15:56:57.949Z,100180.66
2022-11-05T16:00:04.844Z,100206.75
2022-11-05T16:03:18.527Z,100191.16
2022-11-05T16:06:23.586Z,100209.25
2022-11-05T16:09:28.245Z,100202.38
2022-11-05T16:12:35.475Z,100203.84
2022-11-05T16:15:38.201Z,100215.47
2022-11-05T16:18:41.723Z,100221.91
2022-11-05T16:21:54.797Z,100246.31
2022-11-05T16:24:57.443Z,100241.00
2022-11-05T16:28:00.953Z,100234.72
2022-11-05T16:31:05.774Z,100233.97
2022-11-05T16:34:26.201Z,100236.06
2022-11-05T16:37:31.713Z,100230.97
2022-11-05T16:40:34.273Z,100236.16
2022-11-05T16:43:36.941Z,100233.22
2022-11-05T16:46:40.345Z,100252.75
2022-11-05T16:49:42.983Z,100246.47
2022-11-05T16:52:46.481Z,100257.97
2022-11-05T16:55:49.757Z,100270.91
2022-11-05T16:58:52.599Z,100272.78
2022-11-05T17:01:56.085Z,100272.69
2022-11-05T17:04:58.886Z,100267.81
2022-11-05T17:08:03.523Z,100260.75
2022-11-05T17:11:06.842Z,100280.66
2022-11-05T17:14:13.103Z,100265.94
2022-11-05T17:17:16.276Z,100276.34
2022-11-05T17:20:39.890Z,100262.41
2022-11-05T17:23:43.714Z,100290.38
2022-11-05T17:26:46.521Z,100288.50
2022-11-05T17:29:49.342Z,100309.06
2022-11-05T17:32:52.424Z,100319.91
2022-11-05T17:35:56.249Z,100307.06
2022-11-05T17:38:58.925Z,100288.81
2022-11-05T17:42:01.549Z,100311.19
2022-11-05T17:45:04.810Z,100315.28
2022-11-05T17:48:09.352Z,100309.06
2022-11-05T17:51:18.523Z,100309.50
2022-11-05T17:54:21.196Z,100336.03
2022-11-05T17:57:23.915Z,100347.25
2022-11-05T18:00:28.536Z,100323.44
2022-11-05T18:03:31.663Z,100302.88
2022-11-05T18:06:34.448Z,100326.88
2022-11-05T18:09:37.784Z,100336.59
2022-11-05T18:12:41.019Z,100340.25
2022-11-05T18:15:44.691Z,100331.94
2022-11-05T18:18:48.798Z,100332.06
2022-11-05T18:21:51.625Z,100336.47
2022-11-05T18:24:54.849Z,100342.22
2022-11-05T18:27:57.679Z,100340.91
2022-11-05T18:31:00.558Z,100333.66
2022-11-05T18:34:03.655Z,100340.72
2022-11-05T18:37:06.426Z,100347.81
2022-11-05T18:40:10.057Z,100345.06
2022-11-05T18:43:13.773Z,100353.13
2022-11-05T18:46:43.148Z,100359.09
2022-11-05T18:49:40.236Z,100354.97
2022-11-05T18:52:43.303Z,100361.50
2022-11-05T18:55:46.058Z,100354.72
2022-11-05T18:58:49.730Z,100345.63
2022-11-05T19:01:53.309Z,100358.03
2022-11-05T19:05:26.650Z,100342.41
2022-11-05T19:08:19.089Z,100369.50
2022-11-05T19:11:23.652Z,100371.03
2022-11-05T19:14:26.558Z,100366.91
2022-11-05T19:17:29.401Z,100371.78
2022-11-05T19:20:37.635Z,100359.19
2022-11-05T19:23:41.140Z,100378.47
2022-11-05T19:26:44.257Z,100371.34
2022-11-05T19:29:47.684Z,100391.56
2022-11-05T19:32:50.474Z,100382.50
2022-11-05T19:35:53.287Z,100401.78
2022-11-05T19:38:58.612Z,100400.47
2022-11-05T19:42:03.770Z,100405.34
2022-11-05T19:45:30.231Z,100402.44
2022-11-05T19:48:31.516Z,100409.16
2022-11-05T19:51:34.415Z,100401.22
2022-11-05T19:54:37.533Z,100421.03
2022-11-05T19:57:40.243Z,100417.66
2022-11-05T20:00:43.392Z,100415.78
2022-11-05T20:03:46.721Z,100434.28
2022-11-05T20:06:49.659Z,100438.84
2022-11-05T20:09:52.483Z,100430.91
2022-11-05T20:12:55.209Z,100443.66
2022-11-05T20:15:58.517Z,100429.69
2022-11-05T20:19:01.312Z,100400.53
2022-11-05T20:22:04.100Z,100422.06
2022-11-05T20:25:07.134Z,100422.88
2022-11-05T20:28:10.308Z,100428.53
2022-11-05T20:31:15.638Z,100440.47
2022-11-05T20:34:19.239Z,100447.38
2022-11-05T20:37:21.940Z,100450.16
2022-11-05T20:40:24.918Z,100435.13
2022-11-05T20:43:30.652Z,100432.03
2022-11-05T20:46:33.430Z,100458.75
2022-11-05T20:49:36.262Z,100455.47
2022-11-05T20:52:39.085Z,100425.19
2022-11-05T20:55:46.650Z,100449.81
2022-11-05T20:58:49.529Z,100457.34
2022-11-05T21:01:52.416Z,100454.25
2022-11-05T21:04:55.162Z,100470.09
2022-11-05T21:07:57.982Z,100470.28
2022-11-05T21:11:01.197Z,100472.28
2022-11-05T21:14:03.961Z,100467.94
2022-11-05T21:17:07.966Z,100464.06
2022-11-05T21:20:10.720Z,100464.50
2022-11-05T21:23:14.254Z,100439.66
2022-11-05T21:26:18.012Z,100468.06
2022-11-05T21:29:20.792Z,100437.00
2022-11-05T21:32:23.311Z,100456.56
2022-11-05T21:35:26.105Z,100475.31
2022-11-05T21:38:29.130Z,100461.34
2022-11-05T21:41:31.928Z,100459.16
2022-11-05T21:44:34.747Z,100464.34
2022-11-05T21:47:37.488Z,100469.88
2022-11-05T21:50:59.567Z,100466.63
2022-11-05T21:54:21.084Z,100460.44
2022-11-05T21:57:42.384Z,100462.13
2022-11-05T22:00:45.138Z,100476.44
2022-11-05T22:03:49.897Z,100466.34
2022-11-05T22:06:52.447Z,100478.63
2022-11-05T22:09:55.406Z,100483.13
2022-11-05T22:12:57.928Z,100475.25
2022-11-05T22:16:00.707Z,100452.75
2022-11-05T22:19:03.441Z,100481.97
2022-11-05T22:22:06.862Z,100483.06
2022-11-05T22:25:09.496Z,100469.16
2022-11-05T22:28:12.439Z,100481.91
2022-11-05T22:31:16.254Z,100480.09
2022-11-05T22:34:19.049Z,100480.59
2022-11-05T22:37:22.758Z,100486.53
2022-11-05T22:40:25.401Z,100467.91
2022-11-05T22:43:27.925Z,100477.53
2022-11-05T22:46:30.657Z,100481.59
2022-11-05T22:49:33.740Z,100495.59
2022-11-05T22:52:36.211Z,100467.78
2022-11-05T22:55:41.381Z,100487.44
2022-11-05T22:58:43.864Z,100469.41
2022-11-05T23:01:46.875Z,100483.25
2022-11-05T23:04:51.503Z,100497.38
2022-11-05T23:08:12.441Z,100476.34
2022-11-05T23:11:41.196Z,100484.63
2022-11-05T23:14:43.528Z,100491.63
2022-11-05T23:18:04.237Z,100481.38
2022-11-05T23:21:25.894Z,100472.22
2022-11-05T23:24:28.408Z,100494.16
2022-11-05T23:27:32.899Z,100487.81
2022-11-05T23:30:56.879Z,100479.41
2022-11-05T23:33:59.226Z,100482.38
2022-11-05T23:37:20.139Z,100496.66
2022-11-05T23:40:28.304Z,100471.22
2022-11-05T23:43:49.388Z,100509.34
2022-11-05T23:47:10.492Z,100476.03
2022-11-05T23:50:13.016Z,100497.66
2022-11-05T23:53:15.846Z,100505.13
2022-11-05T23:56:18.223Z,100499.41
2022-11-05T23:59:20.615Z,100493.66
